Time;durP1;ratioP1;P1;durP2;ratioP2;P2;SDS_P1;SDS_P2;PMS_P1;PMS_P2;Temp;Humidity;BMP_temperature;BMP_pressure;BME280_temperature;BME280_humidity;BME280_pressure;Samples;Min_cycle;Max_cycle;Signal;HPM_P1;HPM_P2
2023/06/29 00:01:04;;;;;;;39.30;27.40;;;;;;;;;;5039972;28;20536;-76
2023/06/29 00:03:33;;;;;;;39.83;28.05;;;;;;;;;;5036320;28;20042;-76
2023/06/29 00:06:01;;;;;;;45.38;29.13;;;;;;;;;;5036064;28;20136;-76
2023/06/29 00:08:28;;;;;;;40.40;27.80;;;;;;;;;;5036023;28;20476;-76
2023/06/29 00:10:55;;;;;;;43.63;28.45;;;;;;;;;;5035265;28;20381;-76
2023/06/29 00:13:21;;;;;;;44.95;27.80;;;;;;;;;;5035671;28;20472;-76
2023/06/29 00:15:48;;;;;;;43.35;28.75;;;;;;;;;;5035291;28;20049;-76
2023/06/29 00:18:14;;;;;;;44.30;28.73;;;;;;;;;;5035527;28;20045;-76
2023/06/29 00:20:41;;;;;;;41.55;28.40;;;;;;;;;;5035318;28;20042;-76
2023/06/29 00:23:07;;;;;;;42.58;27.65;;;;;;;;;;5035680;28;20365;-76
2023/06/29 00:25:34;;;;;;;43.58;28.05;;;;;;;;;;5035588;28;20058;-76
2023/06/29 00:28:00;;;;;;;43.47;28.10;;;;;;;;;;5035583;28;20136;-76
2023/06/29 00:30:27;;;;;;;40.15;27.48;;;;;;;;;;5035188;28;20045;-76
2023/06/29 00:32:53;;;;;;;45.38;28.63;;;;;;;;;;5035434;28;20045;-76
2023/06/29 00:35:19;;;;;;;41.17;27.90;;;;;;;;;;5035208;28;20052;-76
2023/06/29 00:37:45;;;;;;;43.38;27.35;;;;;;;;;;5034607;28;20120;-76
2023/06/29 00:40:11;;;;;;;42.92;28.05;;;;;;;;;;5035002;28;20057;-77
2023/06/29 00:42:37;;;;;;;43.97;28.33;;;;;;;;;;5035579;28;20046;-77
2023/06/29 00:45:04;;;;;;;43.65;27.55;;;;;;;;;;5035089;28;20550;-76
2023/06/29 00:47:31;;;;;;;45.25;28.70;;;;;;;;;;5034843;28;20432;-76
2023/06/29 00:49:57;;;;;;;43.58;28.02;;;;;;;;;;5034817;28;20496;-76
2023/06/29 00:52:23;;;;;;;41.08;26.13;;;;;;;;;;5034792;28;20396;-76
2023/06/29 00:54:50;;;;;;;45.00;27.45;;;;;;;;;;5034822;28;20045;-76
2023/06/29 00:57:17;;;;;;;42.75;26.92;;;;;;;;;;5034918;28;20077;-76
2023/06/29 00:59:43;;;;;;;43.28;28.70;;;;;;;;;;5034973;28;20052;-76
2023/06/29 01:02:09;;;;;;;41.80;27.13;;;;;;;;;;5034525;28;20470;-77
2023/06/29 01:04:36;;;;;;;44.65;28.08;;;;;;;;;;5034973;28;20045;-76
2023/06/29 01:07:08;;;;;;;46.45;28.13;;;;;;;;;;5034737;28;20080;-76
2023/06/29 01:09:34;;;;;;;44.35;28.27;;;;;;;;;;5035220;28;20042;-76
2023/06/29 01:12:01;;;;;;;43.50;28.63;;;;;;;;;;5034709;28;20049;-76
2023/06/29 01:14:29;;;;;;;42.60;27.73;;;;;;;;;;5034670;28;20064;-76
2023/06/29 01:16:56;;;;;;;44.92;29.13;;;;;;;;;;5034466;28;20053;-76
2023/06/29 01:19:25;;;;;;;46.72;28.63;;;;;;;;;;5034680;28;20188;-76
2023/06/29 01:22:14;;;;;;;39.97;27.00;;;;;;;;;;5034350;28;20078;-76
2023/06/29 01:24:41;;;;;;;44.08;26.80;;;;;;;;;;5030996;28;20049;-77
2023/06/29 01:27:13;;;;;;;41.05;28.08;;;;;;;;;;5034350;28;20128;-76
2023/06/29 01:29:40;;;;;;;38.58;26.95;;;;;;;;;;5016551;28;20116;-77
2023/06/29 01:32:07;;;;;;;41.60;28.50;;;;;;;;;;5034488;28;20041;-77
2023/06/29 01:34:34;;;;;;;43.85;27.92;;;;;;;;;;5034275;28;20042;-76
2023/06/29 01:37:05;;;;;;;49.08;28.10;;;;;;;;;;5034222;28;20546;-76
2023/06/29 01:39:35;;;;;;;47.40;28.13;;;;;;;;;;5034333;28;20080;-76
2023/06/29 01:42:01;;;;;;;45.60;29.10;;;;;;;;;;5034412;28;20152;-76
2023/06/29 01:44:27;;;;;;;42.17;28.67;;;;;;;;;;5034310;28;20041;-76
2023/06/29 01:46:54;;;;;;;44.92;29.63;;;;;;;;;;5033985;28;20053;-76
2023/06/29 01:49:20;;;;;;;46.05;30.38;;;;;;;;;;5034276;28;20048;-76
2023/06/29 01:51:46;;;;;;;51.55;31.13;;;;;;;;;;5033560;28;20393;-76
2023/06/29 01:54:12;;;;;;;49.15;30.77;;;;;;;;;;5033829;28;20049;-76
2023/06/29 01:56:38;;;;;;;53.65;33.38;;;;;;;;;;5033710;28;20090;-76
2023/06/29 01:59:04;;;;;;;48.08;31.33;;;;;;;;;;5034317;28;20049;-76
2023/06/29 02:01:30;;;;;;;55.60;31.38;;;;;;;;;;5033326;28;20088;-76
2023/06/29 02:03:56;;;;;;;51.55;31.20;;;;;;;;;;5033611;28;20076;-76
2023/06/29 02:06:23;;;;;;;48.20;29.45;;;;;;;;;;5033335;28;20049;-76
2023/06/29 02:08:49;;;;;;;51.63;32.53;;;;;;;;;;5033901;28;20053;-76
2023/06/29 02:11:15;;;;;;;47.80;30.55;;;;;;;;;;5032062;28;20468;-77
2023/06/29 02:13:41;;;;;;;46.88;29.92;;;;;;;;;;5032805;28;20521;-77
2023/06/29 02:16:07;;;;;;;45.75;29.85;;;;;;;;;;5033303;28;20041;-77
2023/06/29 02:18:33;;;;;;;45.92;28.90;;;;;;;;;;5033730;28;20038;-76
2023/06/29 02:20:59;;;;;;;48.03;30.27;;;;;;;;;;5032475;28;20042;-76
2023/06/29 02:23:25;;;;;;;46.60;29.92;;;;;;;;;;5033444;28;20499;-76
2023/06/29 02:25:51;;;;;;;46.20;29.35;;;;;;;;;;5033423;28;20053;-76
2023/06/29 02:28:17;;;;;;;47.47;30.58;;;;;;;;;;5031889;28;20439;-76
2023/06/29 02:30:43;;;;;;;47.45;30.10;;;;;;;;;;5032759;28;20446;-76
2023/06/29 02:33:09;;;;;;;45.85;29.40;;;;;;;;;;5033119;28;20506;-76
2023/06/29 02:35:35;;;;;;;46.85;29.40;;;;;;;;;;5033578;28;20045;-76
2023/06/29 02:38:01;;;;;;;45.90;29.95;;;;;;;;;;5033622;28;20041;-76
2023/06/29 02:40:27;;;;;;;46.63;28.85;;;;;;;;;;5033381;28;20058;-76
2023/06/29 02:42:53;;;;;;;51.75;29.70;;;;;;;;;;5032286;28;20045;-76
2023/06/29 02:45:19;;;;;;;47.17;30.13;;;;;;;;;;5033047;28;20041;-77
2023/06/29 02:47:45;;;;;;;52.83;29.73;;;;;;;;;;5033500;28;20045;-76
2023/06/29 02:50:12;;;;;;;48.58;28.60;;;;;;;;;;5033166;28;20582;-77
2023/06/29 02:52:38;;;;;;;46.83;29.33;;;;;;;;;;5033005;28;20050;-76
2023/06/29 02:55:04;;;;;;;48.83;29.90;;;;;;;;;;5028096;28;20076;-76
2023/06/29 02:57:30;;;;;;;47.30;30.05;;;;;;;;;;5013631;28;20457;-76
2023/06/29 02:59:56;;;;;;;49.90;29.42;;;;;;;;;;5013486;28;20115;-76
2023/06/29 03:02:22;;;;;;;43.65;28.38;;;;;;;;;;5015832;28;20181;-76
2023/06/29 03:04:48;;;;;;;46.10;28.42;;;;;;;;;;5017178;28;20053;-76
2023/06/29 03:07:14;;;;;;;49.67;29.48;;;;;;;;;;5017355;28;20053;-76
2023/06/29 03:09:40;;;;;;;46.45;28.13;;;;;;;;;;5017223;28;20042;-76
2023/06/29 03:12:07;;;;;;;46.78;28.27;;;;;;;;;;5016659;28;20546;-76
2023/06/29 03:14:33;;;;;;;46.45;28.55;;;;;;;;;;5017390;28;20042;-76
2023/06/29 03:16:59;;;;;;;45.90;29.17;;;;;;;;;;5016798;28;20484;-76
2023/06/29 03:19:26;;;;;;;43.25;28.55;;;;;;;;;;5016702;28;20474;-76
2023/06/29 03:21:52;;;;;;;43.17;27.88;;;;;;;;;;5016697;28;20559;-77
2023/06/29 03:24:18;;;;;;;43.20;26.35;;;;;;;;;;5016882;28;20133;-77
2023/06/29 03:26:44;;;;;;;50.20;28.05;;;;;;;;;;5016391;28;20496;-76
2023/06/29 03:29:10;;;;;;;38.03;26.15;;;;;;;;;;5017058;28;20100;-76
2023/06/29 03:31:36;;;;;;;41.63;26.60;;;;;;;;;;5016418;28;20045;-76
2023/06/29 03:34:02;;;;;;;41.78;26.98;;;;;;;;;;5016874;28;20037;-76
2023/06/29 03:36:28;;;;;;;41.65;26.52;;;;;;;;;;5018566;28;20125;-76
2023/06/29 03:38:54;;;;;;;38.22;25.67;;;;;;;;;;5021941;28;20046;-77
2023/06/29 03:41:20;;;;;;;39.55;25.77;;;;;;;;;;5021196;28;20065;-76
2023/06/29 03:43:46;;;;;;;45.20;26.73;;;;;;;;;;5018672;28;20066;-76
2023/06/29 03:46:12;;;;;;;43.28;25.58;;;;;;;;;;5016744;28;20119;-77
2023/06/29 03:48:38;;;;;;;40.30;25.63;;;;;;;;;;5016781;28;20049;-76
2023/06/29 03:51:05;;;;;;;40.92;25.52;;;;;;;;;;5016535;28;20038;-76
2023/06/29 03:53:31;;;;;;;38.65;23.38;;;;;;;;;;5016354;28;20046;-76
2023/06/29 03:55:57;;;;;;;37.38;24.40;;;;;;;;;;5028818;28;20042;-76
2023/06/29 03:58:23;;;;;;;40.20;24.20;;;;;;;;;;5036398;28;20357;-76
2023/06/29 04:00:50;;;;;;;39.60;24.23;;;;;;;;;;5036105;28;20144;-76
2023/06/29 04:03:16;;;;;;;35.42;22.65;;;;;;;;;;5035737;28;20046;-77
2023/06/29 04:05:42;;;;;;;37.20;22.92;;;;;;;;;;5035804;28;20045;-76
2023/06/29 04:08:09;;;;;;;34.05;22.88;;;;;;;;;;5036157;28;20096;-76
2023/06/29 04:10:35;;;;;;;33.70;22.70;;;;;;;;;;5035900;28;20050;-76
2023/06/29 04:13:01;;;;;;;37.22;20.80;;;;;;;;;;5034654;28;20045;-77
2023/06/29 04:15:27;;;;;;;35.47;22.17;;;;;;;;;;5035606;28;20120;-76
2023/06/29 04:17:54;;;;;;;33.08;20.73;;;;;;;;;;5034219;28;20042;-76
2023/06/29 04:20:20;;;;;;;36.35;21.13;;;;;;;;;;5035633;28;20041;-76
2023/06/29 04:22:46;;;;;;;31.83;19.67;;;;;;;;;;5035815;28;20037;-76
2023/06/29 04:25:12;;;;;;;34.47;20.52;;;;;;;;;;5035172;28;20566;-77
2023/06/29 04:27:38;;;;;;;30.25;19.23;;;;;;;;;;5033834;28;20446;-77
2023/06/29 04:30:05;;;;;;;31.05;20.15;;;;;;;;;;5034138;28;20104;-77
2023/06/29 04:32:31;;;;;;;29.63;18.73;;;;;;;;;;5035243;28;20095;-76
2023/06/29 04:34:59;;;;;;;27.65;18.27;;;;;;;;;;5035791;28;20037;-76
2023/06/29 04:37:25;;;;;;;32.15;18.35;;;;;;;;;;5035654;28;20046;-77
2023/06/29 04:39:52;;;;;;;27.20;18.65;;;;;;;;;;5035711;28;20060;-76
2023/06/29 04:42:18;;;;;;;28.48;19.17;;;;;;;;;;5035089;28;20046;-77
2023/06/29 04:44:44;;;;;;;27.27;18.70;;;;;;;;;;5035016;28;20053;-77
2023/06/29 04:47:10;;;;;;;29.20;18.63;;;;;;;;;;5035437;28;20049;-76
2023/06/29 04:49:39;;;;;;;32.53;19.73;;;;;;;;;;5035142;28;20404;-76
2023/06/29 04:52:05;;;;;;;32.80;19.42;;;;;;;;;;5035030;28;20045;-76
2023/06/29 04:54:31;;;;;;;29.55;18.40;;;;;;;;;;5033882;28;20049;-76
2023/06/29 04:56:59;;;;;;;28.23;18.10;;;;;;;;;;5015325;28;20049;-76
2023/06/29 04:59:25;;;;;;;30.52;19.05;;;;;;;;;;5015144;28;20073;-76
2023/06/29 05:01:51;;;;;;;30.58;19.77;;;;;;;;;;5015233;28;20117;-76
2023/06/29 05:04:18;;;;;;;28.67;17.90;;;;;;;;;;5014788;28;20503;-76
2023/06/29 05:06:44;;;;;;;31.17;19.67;;;;;;;;;;5014952;28;20056;-76
2023/06/29 05:09:10;;;;;;;28.70;19.00;;;;;;;;;;5015111;28;20046;-77
2023/06/29 05:11:36;;;;;;;33.20;19.02;;;;;;;;;;5014570;28;20538;-77
2023/06/29 05:14:02;;;;;;;26.40;17.85;;;;;;;;;;5014433;28;20046;-77
2023/06/29 05:16:28;;;;;;;32.25;19.80;;;;;;;;;;5029738;28;20120;-77
2023/06/29 05:18:55;;;;;;;28.23;17.85;;;;;;;;;;5034574;28;20052;-78
2023/06/29 05:21:22;;;;;;;28.17;18.33;;;;;;;;;;5033257;28;20045;-77
2023/06/29 05:23:48;;;;;;;33.60;19.40;;;;;;;;;;5035483;28;20128;-77
2023/06/29 05:26:14;;;;;;;31.73;19.27;;;;;;;;;;5034429;28;20426;-77
2023/06/29 05:28:40;;;;;;;30.05;18.73;;;;;;;;;;5033952;28;20199;-77
2023/06/29 05:31:06;;;;;;;29.25;19.02;;;;;;;;;;5034062;28;20111;-77
2023/06/29 05:33:32;;;;;;;34.03;19.63;;;;;;;;;;5034452;28;20068;-77
2023/06/29 05:35:58;;;;;;;30.92;19.35;;;;;;;;;;5034161;28;20049;-76
2023/06/29 05:38:25;;;;;;;28.92;19.05;;;;;;;;;;5033062;28;20108;-78
2023/06/29 05:40:51;;;;;;;31.65;19.95;;;;;;;;;;5033861;28;20389;-77
2023/06/29 05:43:17;;;;;;;31.83;20.55;;;;;;;;;;5034161;28;20072;-76
2023/06/29 05:45:44;;;;;;;30.45;19.40;;;;;;;;;;5033304;28;20488;-76
2023/06/29 05:48:10;;;;;;;30.08;18.67;;;;;;;;;;5034317;28;20104;-76
2023/06/29 05:50:36;;;;;;;28.40;19.45;;;;;;;;;;5033814;28;20045;-76
2023/06/29 05:53:03;;;;;;;34.08;19.48;;;;;;;;;;5034170;28;20088;-76
2023/06/29 05:55:30;;;;;;;33.45;19.35;;;;;;;;;;5024685;28;20530;-76
2023/06/29 05:57:56;;;;;;;29.30;18.50;;;;;;;;;;5014284;28;20168;-76
2023/06/29 06:00:22;;;;;;;33.42;18.88;;;;;;;;;;5013911;28;20096;-76
2023/06/29 06:02:48;;;;;;;33.25;20.52;;;;;;;;;;5013758;28;20044;-76
2023/06/29 06:05:15;;;;;;;34.10;20.30;;;;;;;;;;5013631;28;20069;-76
2023/06/29 06:07:41;;;;;;;29.48;19.30;;;;;;;;;;5013921;28;20100;-76
2023/06/29 06:10:07;;;;;;;29.55;19.95;;;;;;;;;;5013468;28;20364;-76
2023/06/29 06:12:33;;;;;;;33.58;20.83;;;;;;;;;;5014067;28;20082;-77
2023/06/29 06:14:59;;;;;;;29.13;20.02;;;;;;;;;;5016916;28;20041;-77
2023/06/29 06:17:25;;;;;;;30.83;19.77;;;;;;;;;;5015393;28;20418;-78
2023/06/29 06:19:51;;;;;;;33.13;19.70;;;;;;;;;;5033717;28;20057;-77
2023/06/29 06:22:17;;;;;;;30.58;19.83;;;;;;;;;;5033246;28;20053;-77
2023/06/29 06:24:43;;;;;;;30.95;20.08;;;;;;;;;;5033291;28;20049;-77
2023/06/29 06:27:10;;;;;;;29.60;19.60;;;;;;;;;;5032768;28;20431;-77
2023/06/29 06:29:36;;;;;;;33.90;20.77;;;;;;;;;;5033379;28;20376;-77
2023/06/29 06:32:02;;;;;;;30.08;20.02;;;;;;;;;;5033079;28;20045;-77
2023/06/29 06:34:30;;;;;;;29.67;20.23;;;;;;;;;;5033117;28;20138;-77
2023/06/29 06:36:57;;;;;;;27.08;18.67;;;;;;;;;;5032806;28;20053;-77
2023/06/29 06:39:23;;;;;;;30.17;19.52;;;;;;;;;;5033204;28;20045;-77
2023/06/29 06:41:50;;;;;;;31.17;20.00;;;;;;;;;;5032973;28;20037;-77
2023/06/29 06:44:16;;;;;;;32.63;19.73;;;;;;;;;;5032941;28;20042;-77
2023/06/29 06:46:42;;;;;;;29.98;18.63;;;;;;;;;;5032843;28;20519;-76
2023/06/29 06:49:08;;;;;;;32.35;20.45;;;;;;;;;;5033665;28;20128;-76
2023/06/29 06:51:34;;;;;;;28.23;18.67;;;;;;;;;;5032610;28;20080;-76
2023/06/29 06:54:00;;;;;;;29.98;19.27;;;;;;;;;;5033161;28;20094;-76
2023/06/29 06:56:26;;;;;;;29.73;19.55;;;;;;;;;;5033027;28;20041;-76
2023/06/29 06:58:52;;;;;;;27.58;18.77;;;;;;;;;;5032471;28;20408;-76
2023/06/29 07:01:21;;;;;;;33.20;18.88;;;;;;;;;;5031657;28;20111;-76
2023/06/29 07:03:47;;;;;;;29.50;19.52;;;;;;;;;;5032665;28;20427;-77
2023/06/29 07:06:13;;;;;;;29.38;18.85;;;;;;;;;;5032687;28;20050;-76
2023/06/29 07:08:39;;;;;;;30.73;19.83;;;;;;;;;;5032711;28;20124;-76
2023/06/29 07:11:06;;;;;;;27.00;18.77;;;;;;;;;;5032546;28;20041;-77
2023/06/29 07:13:32;;;;;;;28.98;18.83;;;;;;;;;;5033088;28;20049;-77
2023/06/29 07:15:58;;;;;;;32.03;19.13;;;;;;;;;;5032722;28;20052;-76
2023/06/29 07:18:25;;;;;;;33.97;19.40;;;;;;;;;;5035677;28;20069;-77
2023/06/29 07:20:51;;;;;;;31.15;19.77;;;;;;;;;;5038087;28;20069;-76
2023/06/29 07:23:17;;;;;;;31.58;19.88;;;;;;;;;;5038033;28;20072;-76
2023/06/29 07:25:43;;;;;;;32.22;20.60;;;;;;;;;;5033805;28;20061;-76
2023/06/29 07:28:09;;;;;;;31.10;20.15;;;;;;;;;;5032887;28;20055;-77
2023/06/29 07:30:35;;;;;;;32.25;20.60;;;;;;;;;;5032928;28;20519;-76
2023/06/29 07:33:01;;;;;;;31.42;20.67;;;;;;;;;;5032561;28;20046;-76
2023/06/29 07:35:27;;;;;;;33.50;20.65;;;;;;;;;;5032700;28;20465;-77
2023/06/29 07:37:54;;;;;;;33.00;20.75;;;;;;;;;;5032250;28;20408;-77
2023/06/29 07:40:20;;;;;;;35.33;21.00;;;;;;;;;;5033138;28;20041;-77
2023/06/29 07:42:46;;;;;;;32.80;20.30;;;;;;;;;;5032784;28;20045;-77
2023/06/29 07:45:15;;;;;;;33.00;19.77;;;;;;;;;;5032577;28;20068;-77
2023/06/29 07:47:41;;;;;;;36.72;21.30;;;;;;;;;;5034785;28;20048;-77
2023/06/29 07:50:08;;;;;;;32.47;20.40;;;;;;;;;;5036404;28;20483;-76
2023/06/29 07:52:34;;;;;;;36.15;21.17;;;;;;;;;;5036369;28;20190;-77
2023/06/29 07:55:00;;;;;;;34.38;21.40;;;;;;;;;;5031409;28;20124;-76
2023/06/29 07:57:26;;;;;;;33.33;21.63;;;;;;;;;;5016350;28;20050;-76
2023/06/29 07:59:52;;;;;;;35.97;21.65;;;;;;;;;;5016308;28;20129;-76
2023/06/29 08:02:18;;;;;;;39.08;22.80;;;;;;;;;;5016133;28;20064;-77
2023/06/29 08:04:44;;;;;;;36.78;21.52;;;;;;;;;;5016809;28;20045;-77
2023/06/29 08:07:12;;;;;;;35.72;21.95;;;;;;;;;;5016323;28;20483;-77
2023/06/29 08:09:38;;;;;;;35.00;22.15;;;;;;;;;;5016435;28;20122;-78
2023/06/29 08:12:04;;;;;;;33.53;21.20;;;;;;;;;;5014312;28;20077;-78
2023/06/29 08:14:32;;;;;;;36.55;22.90;;;;;;;;;;5016554;28;20044;-78
2023/06/29 08:16:58;;;;;;;34.85;21.40;;;;;;;;;;5035445;28;20369;-78
2023/06/29 08:19:24;;;;;;;35.58;21.23;;;;;;;;;;5035800;28;20041;-78
2023/06/29 08:21:55;;;;;;;35.33;22.60;;;;;;;;;;5035422;28;20376;-78
2023/06/29 08:24:21;;;;;;;36.95;22.60;;;;;;;;;;5035476;28;20085;-77
2023/06/29 08:26:47;;;;;;;37.17;23.42;;;;;;;;;;5035902;28;20049;-77
2023/06/29 08:29:13;;;;;;;35.67;23.00;;;;;;;;;;5035390;28;20458;-76
2023/06/29 08:31:39;;;;;;;33.85;22.60;;;;;;;;;;5035670;28;20042;-76
2023/06/29 08:34:05;;;;;;;36.63;22.23;;;;;;;;;;5035752;28;20054;-76
2023/06/29 08:36:31;;;;;;;36.13;22.83;;;;;;;;;;5035440;28;20052;-76
2023/06/29 08:38:57;;;;;;;36.63;22.85;;;;;;;;;;5035634;28;20060;-76
2023/06/29 08:41:23;;;;;;;35.03;23.23;;;;;;;;;;5035565;28;20053;-76
2023/06/29 08:43:49;;;;;;;35.80;23.13;;;;;;;;;;5035216;28;20052;-76
2023/06/29 08:46:16;;;;;;;37.13;24.27;;;;;;;;;;5033816;28;20045;-76
2023/06/29 08:48:44;;;;;;;38.83;23.80;;;;;;;;;;5035129;28;20037;-76
2023/06/29 08:51:11;;;;;;;36.95;22.55;;;;;;;;;;5034798;28;20464;-76
2023/06/29 08:53:40;;;;;;;39.75;23.90;;;;;;;;;;5035285;28;20045;-76
2023/06/29 08:56:06;;;;;;;37.67;23.60;;;;;;;;;;5034857;28;20073;-76
2023/06/29 08:58:32;;;;;;;36.35;23.90;;;;;;;;;;5034506;28;20072;-76
2023/06/29 09:00:58;;;;;;;34.83;23.63;;;;;;;;;;5034493;28;20111;-76
2023/06/29 09:03:26;;;;;;;35.00;22.85;;;;;;;;;;5035031;28;20450;-77
2023/06/29 09:05:54;;;;;;;36.65;23.30;;;;;;;;;;5034834;28;20053;-77
2023/06/29 09:08:20;;;;;;;37.97;24.83;;;;;;;;;;5034945;28;20049;-77
2023/06/29 09:10:47;;;;;;;39.35;23.40;;;;;;;;;;5034608;28;20072;-77
2023/06/29 09:13:13;;;;;;;36.13;23.30;;;;;;;;;;5034650;28;20041;-77
2023/06/29 09:15:40;;;;;;;36.10;23.73;;;;;;;;;;5033839;28;20162;-77
2023/06/29 09:18:07;;;;;;;38.95;24.38;;;;;;;;;;5034676;28;20049;-76
2023/06/29 09:20:34;;;;;;;35.45;23.90;;;;;;;;;;5034565;28;20045;-76
2023/06/29 09:23:03;;;;;;;39.80;25.33;;;;;;;;;;5034460;28;20124;-76
2023/06/29 09:25:30;;;;;;;37.95;24.13;;;;;;;;;;5034294;28;20057;-76
2023/06/29 09:28:06;;;;;;;34.85;22.70;;;;;;;;;;5034104;28;20412;-77
2023/06/29 09:30:32;;;;;;;;;;;;;;;;;;5035173;28;20045;-76
2023/06/29 09:33:03;;;;;;;33.90;23.20;;;;;;;;;;5034507;28;20031;-76
2023/06/29 09:35:29;;;;;;;32.80;22.92;;;;;;;;;;5034279;28;20049;-76
2023/06/29 09:37:55;;;;;;;37.55;23.45;;;;;;;;;;5034224;28;20045;-76
2023/06/29 09:40:21;;;;;;;35.58;23.90;;;;;;;;;;5034156;28;20056;-77
2023/06/29 09:42:48;;;;;;;38.50;24.25;;;;;;;;;;5034759;28;20095;-76
2023/06/29 09:45:15;;;;;;;39.33;23.40;;;;;;;;;;5033999;28;20452;-76
2023/06/29 09:47:48;;;;;;;36.28;23.25;;;;;;;;;;5034318;28;20100;-76
2023/06/29 09:50:21;;;;;;;37.40;23.88;;;;;;;;;;5034364;28;20092;-77
2023/06/29 09:52:47;;;;;;;36.00;22.30;;;;;;;;;;5033915;28;20111;-76
2023/06/29 09:55:14;;;;;;;31.77;20.10;;;;;;;;;;5034138;28;20049;-76
2023/06/29 09:57:50;;;;;;;29.50;19.65;;;;;;;;;;5034392;28;20091;-76
2023/06/29 10:00:17;;;;;;;32.83;20.25;;;;;;;;;;5033768;28;20046;-77
2023/06/29 10:02:43;;;;;;;28.23;19.13;;;;;;;;;;5033613;28;20045;-77
2023/06/29 10:05:10;;;;;;;30.13;20.25;;;;;;;;;;5033967;28;20052;-76
2023/06/29 10:07:37;;;;;;;30.38;20.95;;;;;;;;;;5034063;28;20072;-76
2023/06/29 10:10:06;;;;;;;32.05;20.88;;;;;;;;;;5033449;28;20041;-76
2023/06/29 10:12:33;;;;;;;34.30;21.23;;;;;;;;;;5033744;28;20049;-77
2023/06/29 10:15:08;;;;;;;31.98;21.15;;;;;;;;;;5033280;28;20515;-76
2023/06/29 10:17:43;;;;;;;31.90;21.52;;;;;;;;;;5032750;28;20124;-77
2023/06/29 10:20:09;;;;;;;37.47;23.42;;;;;;;;;;5033937;28;20050;-77
2023/06/29 10:22:37;;;;;;;36.60;23.10;;;;;;;;;;5033080;28;20057;-76
2023/06/29 10:25:06;;;;;;;34.60;23.38;;;;;;;;;;5033112;28;20053;-76
2023/06/29 10:27:33;;;;;;;38.65;24.60;;;;;;;;;;5033627;28;20055;-76
2023/06/29 10:30:02;;;;;;;33.78;22.70;;;;;;;;;;5032993;28;20037;-76
2023/06/29 10:32:30;;;;;;;37.58;23.38;;;;;;;;;;5032842;28;20042;-76
2023/06/29 10:35:02;;;;;;;34.92;23.88;;;;;;;;;;5033232;28;20442;-77
2023/06/29 10:37:35;;;;;;;39.28;24.65;;;;;;;;;;5033319;28;20053;-76
2023/06/29 10:40:05;;;;;;;38.50;24.95;;;;;;;;;;5033110;28;20045;-76
2023/06/29 10:42:34;;;;;;;40.13;25.02;;;;;;;;;;5033307;28;20450;-76
2023/06/29 10:45:00;;;;;;;36.65;24.08;;;;;;;;;;5033332;28;20089;-76
2023/06/29 10:47:36;;;;;;;37.92;25.80;;;;;;;;;;5031914;28;20080;-76
2023/06/29 10:50:12;;;;;;;40.80;25.35;;;;;;;;;;5033266;28;20056;-76
2023/06/29 10:52:38;;;;;;;42.25;26.20;;;;;;;;;;5032954;28;20053;-76
2023/06/29 10:55:17;;;;;;;40.30;26.77;;;;;;;;;;5027257;28;20388;-76
2023/06/29 10:57:58;;;;;;;41.72;27.92;;;;;;;;;;5013700;28;20041;-76
2023/06/29 11:00:28;;;;;;;40.72;27.13;;;;;;;;;;5013576;28;20042;-76
2023/06/29 11:02:54;;;;;;;45.30;27.40;;;;;;;;;;5018553;28;20033;-76
2023/06/29 11:05:21;;;;;;;43.00;26.65;;;;;;;;;;5018834;28;20053;-76
2023/06/29 11:07:51;;;;;;;40.67;26.30;;;;;;;;;;5017742;28;20050;-76
2023/06/29 11:10:21;;;;;;;39.22;26.17;;;;;;;;;;5013649;28;20046;-77
2023/06/29 11:12:49;;;;;;;45.25;28.70;;;;;;;;;;5013810;28;20038;-76
2023/06/29 11:15:16;;;;;;;44.08;27.98;;;;;;;;;;5018648;28;20054;-76
2023/06/29 11:17:42;;;;;;;44.85;28.92;;;;;;;;;;5032784;28;20108;-76
2023/06/29 11:20:15;;;;;;;45.28;29.70;;;;;;;;;;5032709;28;20075;-76
2023/06/29 11:22:42;;;;;;;40.85;27.40;;;;;;;;;;5034425;28;20056;-77
2023/06/29 11:25:09;;;;;;;41.42;28.27;;;;;;;;;;5036319;28;20057;-76
2023/06/29 11:27:35;;;;;;;42.17;27.17;;;;;;;;;;5037295;28;20092;-76
2023/06/29 11:30:02;;;;;;;49.08;28.55;;;;;;;;;;5037053;28;20056;-76
2023/06/29 11:32:30;;;;;;;44.47;27.52;;;;;;;;;;5037002;28;20084;-76
2023/06/29 11:34:57;;;;;;;42.83;28.42;;;;;;;;;;5037026;28;20047;-76
2023/06/29 11:37:24;;;;;;;39.60;26.90;;;;;;;;;;5036565;28;20107;-76
2023/06/29 11:39:50;;;;;;;41.33;27.38;;;;;;;;;;5036363;28;20479;-76
2023/06/29 11:42:21;;;;;;;43.63;27.95;;;;;;;;;;5036764;28;20045;-77
2023/06/29 11:44:49;;;;;;;42.75;27.63;;;;;;;;;;5036536;28;20053;-76
2023/06/29 11:47:19;;;;;;;43.67;29.23;;;;;;;;;;5036475;28;20108;-76
2023/06/29 11:49:50;;;;;;;40.35;27.73;;;;;;;;;;5036815;28;20092;-76
2023/06/29 11:52:16;;;;;;;40.92;27.48;;;;;;;;;;5036411;28;20041;-76
2023/06/29 11:54:42;;;;;;;39.75;27.63;;;;;;;;;;5036581;28;20042;-76
2023/06/29 11:57:08;;;;;;;38.08;26.92;;;;;;;;;;5036428;28;20099;-77
2023/06/29 11:59:38;;;;;;;36.30;25.95;;;;;;;;;;5036388;28;20092;-78
2023/06/29 12:02:04;;;;;;;34.50;25.17;;;;;;;;;;5036657;28;20099;-76
2023/06/29 12:04:30;;;;;;;38.13;25.10;;;;;;;;;;5036541;28;20076;-77
2023/06/29 12:06:56;;;;;;;32.55;23.92;;;;;;;;;;5035999;28;20053;-77
2023/06/29 12:09:32;;;;;;;34.20;25.38;;;;;;;;;;5035884;28;20602;-77
2023/06/29 12:11:59;;;;;;;31.42;23.48;;;;;;;;;;5035568;28;20061;-77
2023/06/29 12:14:34;;;;;;;32.53;22.92;;;;;;;;;;5035989;28;20045;-78
2023/06/29 12:17:01;;;;;;;31.60;23.38;;;;;;;;;;5016153;28;20404;-78
2023/06/29 12:19:34;;;;;;;33.33;22.95;;;;;;;;;;5016315;28;20081;-77
2023/06/29 12:22:00;;;;;;;32.33;23.90;;;;;;;;;;5015799;28;20125;-77
2023/06/29 12:24:26;;;;;;;31.50;22.95;;;;;;;;;;5015670;28;20531;-77
2023/06/29 12:26:52;;;;;;;31.45;22.80;;;;;;;;;;5015875;28;20399;-78
2023/06/29 12:29:18;;;;;;;31.27;21.90;;;;;;;;;;5014983;28;20053;-78
2023/06/29 12:31:44;;;;;;;34.60;23.00;;;;;;;;;;5015664;28;20069;-78
2023/06/29 12:34:10;;;;;;;31.38;20.02;;;;;;;;;;5014690;28;20082;-78
2023/06/29 12:36:36;;;;;;;33.00;20.95;;;;;;;;;;5015696;28;20042;-78
2023/06/29 12:39:02;;;;;;;31.92;21.48;;;;;;;;;;5015670;28;20042;-78
2023/06/29 12:41:28;;;;;;;36.30;22.38;;;;;;;;;;5015039;28;20042;-78
2023/06/29 12:43:55;;;;;;;39.38;23.25;;;;;;;;;;5015848;28;20125;-77
2023/06/29 12:46:23;;;;;;;41.70;24.38;;;;;;;;;;5015467;28;20046;-77
2023/06/29 12:48:49;;;;;;;39.95;23.80;;;;;;;;;;5015657;28;20056;-77
2023/06/29 12:51:15;;;;;;;42.55;24.60;;;;;;;;;;5014961;28;20053;-77
2023/06/29 12:53:42;;;;;;;43.15;24.52;;;;;;;;;;5015203;28;20500;-77
2023/06/29 12:56:08;;;;;;;46.08;25.58;;;;;;;;;;5013833;28;20058;-78
2023/06/29 12:58:35;;;;;;;52.13;28.33;;;;;;;;;;5015671;28;20057;-78
2023/06/29 13:01:01;;;;;;;53.70;28.88;;;;;;;;;;5015097;28;20053;-78
2023/06/29 13:03:27;;;;;;;55.75;30.23;;;;;;;;;;5015023;28;20045;-77
2023/06/29 13:05:53;;;;;;;54.75;31.25;;;;;;;;;;5014743;28;20053;-78
2023/06/29 13:08:19;;;;;;;55.72;30.33;;;;;;;;;;5015117;28;20418;-78
2023/06/29 13:10:45;;;;;;;56.90;29.83;;;;;;;;;;5015088;28;20149;-78
2023/06/29 13:13:11;;;;;;;54.28;31.92;;;;;;;;;;5015681;28;20042;-78
2023/06/29 13:15:37;;;;;;;63.45;32.05;;;;;;;;;;5021925;28;20055;-78
2023/06/29 13:18:03;;;;;;;59.20;31.40;;;;;;;;;;5035118;28;20096;-78
2023/06/29 13:20:29;;;;;;;52.83;29.67;;;;;;;;;;5034734;28;20042;-78
2023/06/29 13:22:55;;;;;;;56.40;30.70;;;;;;;;;;5034860;28;20048;-78
2023/06/29 13:25:22;;;;;;;56.20;31.92;;;;;;;;;;5032536;28;20057;-78
2023/06/29 13:27:48;;;;;;;57.50;31.08;;;;;;;;;;5034764;28;20088;-77
2023/06/29 13:30:15;;;;;;;57.40;31.70;;;;;;;;;;5033197;28;20049;-78
2023/06/29 13:32:41;;;;;;;53.75;31.27;;;;;;;;;;5033160;28;20049;-78
2023/06/29 13:35:07;;;;;;;56.85;31.65;;;;;;;;;;5033065;28;20104;-78
2023/06/29 13:37:34;;;;;;;57.45;31.40;;;;;;;;;;5032792;28;20132;-78
2023/06/29 13:40:00;;;;;;;57.70;31.38;;;;;;;;;;5034400;28;20041;-78
2023/06/29 13:42:26;;;;;;;58.83;31.88;;;;;;;;;;5034089;28;20041;-77
2023/06/29 13:44:52;;;;;;;63.30;32.80;;;;;;;;;;5032715;28;20045;-78
2023/06/29 13:47:19;;;;;;;54.88;30.98;;;;;;;;;;5032883;28;20049;-78
2023/06/29 13:49:45;;;;;;;37.63;22.13;;;;;;;;;;5034203;28;20041;-77
2023/06/29 13:52:11;;;;;;;26.48;16.58;;;;;;;;;;5033633;28;20041;-77
2023/06/29 13:54:37;;;;;;;23.52;14.45;;;;;;;;;;5033619;28;20502;-77
2023/06/29 13:57:05;;;;;;;20.27;13.07;;;;;;;;;;5033534;28;20388;-77
2023/06/29 13:59:31;;;;;;;19.48;11.65;;;;;;;;;;5033862;28;20049;-77
2023/06/29 14:01:57;;;;;;;14.38;8.90;;;;;;;;;;5033949;28;20057;-77
2023/06/29 14:04:24;;;;;;;10.93;7.15;;;;;;;;;;5033962;28;20053;-77
2023/06/29 14:06:51;;;;;;;10.50;6.82;;;;;;;;;;5033507;28;20074;-76
2023/06/29 14:09:17;;;;;;;7.90;6.25;;;;;;;;;;5033890;28;20064;-77
2023/06/29 14:11:43;;;;;;;7.10;5.70;;;;;;;;;;5033412;28;20050;-77
2023/06/29 14:14:09;;;;;;;8.52;5.50;;;;;;;;;;5033965;28;20046;-77
2023/06/29 14:16:36;;;;;;;7.97;6.13;;;;;;;;;;5033580;28;20081;-77